Language: 


Des rapports , des résumés tant et plus, au choix de chacun....


Données statistiques de la station
Quotidien Rapport Mars 25, 2017 Unités:  Anglais    Métrique   les deux
« Précédent Jour
Suivant Jour »
Quotidien Hebdomadaire Mensuel Annuel Actuel
  Haut: Bas: Moyen:
Température: 62.2 °F 39.7 °F 50.7 °F
Pt de rosée: 40.3 °F 27.9 °F 35.4 °F
Humidité: 87 % 36 % 59 %
Vitesse du vent: 26.6 mph 2.9 mph 10.8 mph
Rafales: 27.1 mph - -
Vent:- - NE
Pression: 30.4 in 30.2 in -
Précipitation: 0 in    
Historical Graphs
 
 
Données statistiques pour Mars 25, 2017
Heure Température Point de rosée Pression Vent Vitesse du vent Refales Humidité Pluie (taux horaire)
00:02 46.6 °F 40.3 °F 30.4 in NNE 7.6 mph 10.7 mph 79 % 0 in
00:07 46 °F 39.6 °F 30.4 in NE 5.8 mph 10.7 mph 78 % 0 in
00:12 46 °F 39.6 °F 30.4 in NNE 8.1 mph 9.6 mph 78 % 0 in
00:17 46 °F 39.9 °F 30.4 in NE 8.5 mph 10.5 mph 79 % 0 in
00:22 46.2 °F 40.1 °F 30.4 in NE 9.4 mph 12.3 mph 79 % 0 in
00:27 46.2 °F 39.7 °F 30.4 in NE 9.2 mph 12.3 mph 78 % 0 in
00:32 46 °F 39.6 °F 30.4 in ENE 8.9 mph 11.4 mph 78 % 0 in
00:37 46.2 °F 39.6 °F 30.4 in ENE 8.1 mph 11.4 mph 77 % 0 in
00:42 46 °F 39.4 °F 30.4 in NE 10.1 mph 11.2 mph 77 % 0 in
00:47 46 °F 39.4 °F 30.4 in NE 8.7 mph 10.5 mph 77 % 0 in
00:52 46 °F 39.4 °F 30.4 in NE 8.1 mph 10.5 mph 77 % 0 in
00:57 45.9 °F 39 °F 30.4 in NE 8.7 mph 11.2 mph 77 % 0 in
01:02 45.9 °F 39 °F 30.4 in NE 9.8 mph 11.2 mph 77 % 0 in
01:07 45.9 °F 39 °F 30.4 in NE 8.7 mph 11 mph 77 % 0 in
01:12 45.9 °F 39 °F 30.4 in NNE 9.6 mph 10.1 mph 77 % 0 in
01:17 45.7 °F 38.8 °F 30.4 in NE 8.1 mph 9.8 mph 77 % 0 in
01:23 45.3 °F 38.7 °F 30.4 in ENE 8.5 mph 10.1 mph 77 % 0 in
01:28 45.3 °F 38.7 °F 30.4 in NNE 8.7 mph 10.3 mph 77 % 0 in
01:33 45.1 °F 38.5 °F 30.4 in NE 7.4 mph 10.3 mph 77 % 0 in
01:38 45.1 °F 38.5 °F 30.4 in NE 7.4 mph 11 mph 77 % 0 in
01:43 45.1 °F 38.5 °F 30.4 in NE 8.9 mph 11 mph 77 % 0 in
01:48 45.1 °F 38.3 °F 30.4 in NNE 7.2 mph 9.6 mph 77 % 0 in
01:53 45 °F 38.1 °F 30.4 in NE 8.1 mph 9.6 mph 77 % 0 in
01:58 44.8 °F 37.9 °F 30.4 in NNE 6.5 mph 9.4 mph 77 % 0 in
02:03 44.8 °F 37.9 °F 30.4 in NE 6 mph 8.1 mph 77 % 0 in
02:08 44.4 °F 37.8 °F 30.4 in NE 6.3 mph 8.7 mph 77 % 0 in
02:13 44.2 °F 37.6 °F 30.4 in NE 7.2 mph 8.7 mph 77 % 0 in
02:18 44.2 °F 37.8 °F 30.4 in NE 8.1 mph 9.8 mph 78 % 0 in
02:23 44.1 °F 37.6 °F 30.4 in NNE 7.8 mph 10.5 mph 78 % 0 in
02:28 44.1 °F 37.9 °F 30.4 in NNE 8.7 mph 10.5 mph 79 % 0 in
02:33 44.1 °F 37.9 °F 30.4 in North 8.1 mph 9.6 mph 79 % 0 in
02:38 43.5 °F 37.6 °F 30.4 in NE 7.6 mph 9.6 mph 79 % 0 in
02:43 43.3 °F 37.2 °F 30.4 in NNE 7.6 mph 8.7 mph 79 % 0 in
02:48 43 °F 36.9 °F 30.4 in North 6.3 mph 9.8 mph 79 % 0 in
02:53 42.6 °F 36.5 °F 30.4 in NNE 7.8 mph 9.8 mph 79 % 0 in
02:58 42.3 °F 36.9 °F 30.4 in NE 8.5 mph 8.9 mph 81 % 0 in
03:03 42.3 °F 36.9 °F 30.4 in NE 6 mph 8.9 mph 81 % 0 in
03:08 42.4 °F 37.2 °F 30.4 in NE 7.6 mph 8.7 mph 82 % 0 in
03:13 42.8 °F 37.6 °F 30.4 in NE 8.5 mph 11 mph 82 % 0 in
03:18 42.8 °F 37.6 °F 30.4 in NE 8.5 mph 11 mph 82 % 0 in
03:23 42.8 °F 37.6 °F 30.4 in NE 8.7 mph 11 mph 82 % 0 in
03:28 42.8 °F 37.6 °F 30.4 in NE 8.5 mph 10.7 mph 82 % 0 in
03:33 42.8 °F 37.6 °F 30.4 in NE 6 mph 10.1 mph 82 % 0 in
03:38 42.8 °F 37.6 °F 30.4 in NNE 7.2 mph 10.1 mph 82 % 0 in
03:43 42.8 °F 37.2 °F 30.4 in NE 7.4 mph 10.1 mph 81 % 0 in
03:48 42.8 °F 37.2 °F 30.4 in NE 7.6 mph 10.3 mph 81 % 0 in
03:53 42.8 °F 37.2 °F 30.4 in NNE 6 mph 10.3 mph 81 % 0 in
03:58 42.6 °F 37.2 °F 30.4 in NNE 10.1 mph 10.1 mph 81 % 0 in
04:03 42.4 °F 37 °F 30.4 in NE 6.3 mph 10.1 mph 81 % 0 in
04:08 42.4 °F 37 °F 30.3 in NE 8.1 mph 9.8 mph 81 % 0 in
04:13 42.3 °F 37 °F 30.3 in NE 2.9 mph 9.8 mph 82 % 0 in
04:18 42.3 °F 36.9 °F 30.3 in ENE 7.8 mph 9.4 mph 81 % 0 in
04:23 42.1 °F 37 °F 30.3 in NE 5.8 mph 10.1 mph 82 % 0 in
04:28 41.9 °F 36.9 °F 30.3 in NNE 8.1 mph 10.1 mph 82 % 0 in
04:33 41.5 °F 36.3 °F 30.3 in NE 4.9 mph 8.7 mph 82 % 0 in
04:38 41.5 °F 36.3 °F 30.3 in NE 6.3 mph 8.9 mph 82 % 0 in
04:43 41.4 °F 36.7 °F 30.3 in NE 5.8 mph 8.9 mph 83 % 0 in
04:48 41.5 °F 36.7 °F 30.3 in NE 9.2 mph 12.1 mph 83 % 0 in
04:53 41.5 °F 36.7 °F 30.3 in NE 7.6 mph 12.1 mph 83 % 0 in
04:58 41 °F 36.1 °F 30.3 in NNE 7.8 mph 9.8 mph 83 % 0 in
04:59 41 °F 36.1 °F 30.3 in NNE 7.8 mph 9.8 mph 83 % 0 in
05:04 40.8 °F 36.3 °F 30.3 in NNE 6.7 mph 10.3 mph 84 % 0 in
05:05 40.6 °F 36.1 °F 30.3 in NNE 8.7 mph 10.3 mph 84 % 0 in
05:10 40.5 °F 36.3 °F 30.3 in NNE 8.7 mph 10.3 mph 85 % 0 in
05:15 40.3 °F 36.1 °F 30.3 in NNE 6.9 mph 10.3 mph 85 % 0 in
05:20 40.3 °F 36.3 °F 30.3 in NNE 8.1 mph 9.8 mph 86 % 0 in
05:25 40.3 °F 36.3 °F 30.3 in NE 6 mph 8.9 mph 86 % 0 in
05:30 40.1 °F 36.3 °F 30.3 in NNE 6 mph 8.7 mph 86 % 0 in
05:35 39.7 °F 36 °F 30.3 in NE 4.9 mph 8.7 mph 86 % 0 in
05:40 39.7 °F 36 °F 30.3 in NE 7.4 mph 8.1 mph 86 % 0 in
05:45 39.7 °F 36 °F 30.3 in NE 6.5 mph 8.1 mph 86 % 0 in
05:50 39.9 °F 36.3 °F 30.3 in ENE 7.4 mph 10.5 mph 87 % 0 in
05:55 40.1 °F 36.7 °F 30.3 in NE 7.8 mph 10.5 mph 87 % 0 in
06:00 40.3 °F 36.7 °F 30.3 in NE 7.4 mph 9.6 mph 87 % 0 in
06:05 40.1 °F 36.7 °F 30.3 in NE 9.8 mph 9.8 mph 87 % 0 in
06:10 40.5 °F 36.9 °F 30.3 in NNE 7.8 mph 10.3 mph 87 % 0 in
06:15 40.6 °F 37 °F 30.3 in NNE 7.2 mph 10.3 mph 87 % 0 in
06:21 40.6 °F 37 °F 30.3 in NE 6.9 mph 10.7 mph 87 % 0 in
06:26 40.5 °F 36.7 °F 30.3 in ENE 6 mph 10.7 mph 86 % 0 in
06:30 40.5 °F 36.7 °F 30.3 in NE 8.1 mph 10.5 mph 86 % 0 in
06:36 40.5 °F 36.7 °F 30.3 in ENE 6.5 mph 10.5 mph 86 % 0 in
06:41 40.5 °F 36.7 °F 30.3 in NNE 9.6 mph 10.7 mph 86 % 0 in
06:46 40.5 °F 36.7 °F 30.3 in NE 8.7 mph 10.7 mph 86 % 0 in
06:56 40.3 °F 36.3 °F 30.3 in ENE 9.6 mph 10.3 mph 86 % 0 in
07:01 40.5 °F 36.7 °F 30.3 in NE 7.6 mph 10.5 mph 86 % 0 in
07:06 40.5 °F 36.7 °F 30.3 in ENE 7.8 mph 10.5 mph 86 % 0 in
07:11 40.8 °F 37 °F 30.3 in NE 10.7 mph 10.7 mph 86 % 0 in
07:16 41 °F 37 °F 30.3 in NE 13.2 mph 13.2 mph 86 % 0 in
07:21 41.4 °F 37.6 °F 30.3 in NE 7.6 mph 13.2 mph 86 % 0 in
07:26 41.5 °F 37.6 °F 30.3 in NE 9.8 mph 10.7 mph 86 % 0 in
07:31 42.1 °F 37.9 °F 30.3 in NE 7.2 mph 11.4 mph 85 % 0 in
07:36 42.3 °F 37.9 °F 30.3 in NE 6.3 mph 11.4 mph 85 % 0 in
07:41 42.6 °F 38.1 °F 30.3 in NE 8.5 mph 9.8 mph 84 % 0 in
07:46 43 °F 38.1 °F 30.3 in NE 9.8 mph 12.3 mph 83 % 0 in
07:51 43.3 °F 38.1 °F 30.3 in ENE 6.5 mph 12.3 mph 82 % 0 in
07:56 43.5 °F 38.1 °F 30.3 in NNE 8.1 mph 11 mph 81 % 0 in
08:01 44.1 °F 38.1 °F 30.3 in ENE 11 mph 12.1 mph 80 % 0 in
08:06 44.2 °F 38.1 °F 30.3 in ENE 10.3 mph 13 mph 79 % 0 in
08:11 44.8 °F 38.7 °F 30.4 in NE 10.1 mph 13 mph 79 % 0 in
08:16 45 °F 38.1 °F 30.4 in NE 10.7 mph 12.8 mph 77 % 0 in
08:21 45.1 °F 38.5 °F 30.4 in ENE 6.3 mph 12.8 mph 77 % 0 in
08:22 45.1 °F 38.5 °F 30.4 in ENE 6 mph 12.8 mph 77 % 0 in
08:27 45.7 °F 38.5 °F 30.4 in ENE 8.5 mph 11 mph 76 % 0 in
08:32 45.7 °F 38.1 °F 30.4 in NE 7.2 mph 12.3 mph 75 % 0 in
08:37 45.7 °F 38.1 °F 30.4 in NE 10.3 mph 12.3 mph 75 % 0 in
08:42 45.9 °F 38.5 °F 30.4 in NE 7.6 mph 14.5 mph 75 % 0 in
08:47 46.2 °F 38.8 °F 30.4 in NE 9.4 mph 14.5 mph 75 % 0 in
08:52 46.6 °F 38.8 °F 30.4 in NE 9.6 mph 12.5 mph 74 % 0 in
08:57 46.9 °F 38.8 °F 30.3 in NE 9.2 mph 12.8 mph 73 % 0 in
09:02 47.1 °F 39 °F 30.3 in East 10.5 mph 13.9 mph 73 % 0 in
09:07 47.5 °F 39.4 °F 30.3 in NE 8.7 mph 13.9 mph 73 % 0 in
09:12 47.7 °F 39 °F 30.3 in NE 12.5 mph 13.2 mph 72 % 0 in
09:17 48.2 °F 39.4 °F 30.3 in ENE 10.1 mph 13.2 mph 71 % 0 in
09:22 48.4 °F 39 °F 30.3 in NE 8.7 mph 13 mph 70 % 0 in
09:27 48.7 °F 39.4 °F 30.3 in NE 8.7 mph 12.1 mph 70 % 0 in
09:32 49.1 °F 39.4 °F 30.3 in NE 7.6 mph 13 mph 69 % 0 in
09:37 49.3 °F 39.2 °F 30.3 in ENE 10.5 mph 14.8 mph 68 % 0 in
09:42 50 °F 40.3 °F 30.3 in NE 11.4 mph 14.8 mph 69 % 0 in
09:43 50 °F 39.7 °F 30.3 in NE 15.4 mph 15.4 mph 68 % 0 in
09:48 50.5 °F 39.9 °F 30.3 in NE 10.5 mph 15.4 mph 67 % 0 in
09:53 50.7 °F 39.7 °F 30.3 in ENE 10.5 mph 15.4 mph 66 % 0 in
09:58 51.3 °F 40.3 °F 30.3 in East 9.6 mph 14.8 mph 66 % 0 in
10:03 51.6 °F 39.7 °F 30.3 in NE 8.7 mph 12.8 mph 64 % 0 in
10:08 51.8 °F 39 °F 30.3 in NE 11.4 mph 17.7 mph 62 % 0 in
10:13 52.3 °F 40.1 °F 30.3 in NE 10.3 mph 17.7 mph 63 % 0 in
10:18 52.5 °F 39.6 °F 30.3 in NE 12.8 mph 17.7 mph 61 % 0 in
10:23 52.9 °F 38.8 °F 30.3 in ENE 12.8 mph 17.7 mph 59 % 0 in
10:28 53.2 °F 39.2 °F 30.3 in NE 13 mph 17 mph 59 % 0 in
10:33 53.4 °F 38.7 °F 30.3 in ENE 12.5 mph 19.2 mph 57 % 0 in
10:38 53.8 °F 38.8 °F 30.3 in ENE 11.4 mph 19.2 mph 57 % 0 in
10:43 54.1 °F 39.4 °F 30.3 in NE 12.5 mph 15.4 mph 57 % 0 in
10:48 54.3 °F 39 °F 30.3 in NE 14.8 mph 15.4 mph 56 % 0 in
10:53 54.7 °F 38.7 °F 30.3 in ENE 14.3 mph 17.4 mph 55 % 0 in
10:58 54.9 °F 39 °F 30.3 in NNE 10.5 mph 17.4 mph 55 % 0 in
11:03 55 °F 38.7 °F 30.3 in ENE 10.3 mph 15.2 mph 54 % 0 in
11:08 55.6 °F 39 °F 30.3 in ENE 11 mph 16.1 mph 54 % 0 in
11:18 55.8 °F 38.5 °F 30.3 in NE 15.2 mph 18.1 mph 52 % 0 in
11:23 56.1 °F 38.8 °F 30.3 in NNE 10.7 mph 18.1 mph 52 % 0 in
11:33 56.5 °F 38.7 °F 30.3 in NE 10.1 mph 20.1 mph 51 % 0 in
11:38 56.7 °F 38.3 °F 30.3 in NE 14.1 mph 20.1 mph 50 % 0 in
11:48 57.6 °F 38.5 °F 30.3 in NE 13.2 mph 17.7 mph 49 % 0 in
11:53 57.6 °F 37.9 °F 30.3 in NE 16.6 mph 23.9 mph 48 % 0 in
11:58 57.6 °F 37.9 °F 30.3 in NE 10.7 mph 23.9 mph 48 % 0 in
12:03 57.6 °F 37.6 °F 30.3 in NE 21 mph 24.2 mph 47 % 0 in
12:08 57.6 °F 37.6 °F 30.3 in NNE 13.6 mph 24.2 mph 47 % 0 in
12:13 57.9 °F 37.8 °F 30.3 in NE 16.8 mph 23.3 mph 47 % 0 in
12:14 57.9 °F 37.8 °F 30.3 in NE 18.6 mph 23.3 mph 47 % 0 in
12:19 57.7 °F 37 °F 30.3 in ENE 15.9 mph 25.9 mph 46 % 0 in
12:24 58.1 °F 37.4 °F 30.3 in ENE 13.4 mph 25.9 mph 46 % 0 in
12:29 58.6 °F 37.9 °F 30.3 in NE 19.7 mph 23.9 mph 46 % 0 in
12:34 58.5 °F 36.7 °F 30.3 in NNE 15.7 mph 24.4 mph 44 % 0 in
12:39 58.8 °F 37.6 °F 30.3 in ENE 19.9 mph 24.4 mph 45 % 0 in
12:44 59.2 °F 36.7 °F 30.3 in NNE 15.4 mph 23.9 mph 43 % 0 in
12:49 59.9 °F 36.7 °F 30.3 in NE 18.8 mph 23.9 mph 42 % 0 in
12:54 60.1 °F 36.9 °F 30.3 in ENE 13 mph 20.4 mph 42 % 0 in
12:59 60.1 °F 36.9 °F 30.3 in ENE 11.2 mph 22.4 mph 42 % 0 in
13:04 60.1 °F 36.9 °F 30.3 in NE 15.7 mph 24.4 mph 42 % 0 in
13:09 60.1 °F 36.9 °F 30.3 in NE 23.9 mph 25.1 mph 42 % 0 in
13:14 60.3 °F 36.3 °F 30.3 in ENE 15.7 mph 25.1 mph 41 % 0 in
13:19 60.3 °F 35.8 °F 30.3 in NE 22.1 mph 27.1 mph 40 % 0 in
13:27 60.6 °F 36.7 °F 30.2 in ENE 14.8 mph 27.1 mph 41 % 0 in
13:32 60.6 °F 37.2 °F 30.2 in NE 19 mph 22.1 mph 42 % 0 in
13:37 60.3 °F 36.3 °F 30.2 in NE 15.4 mph 25.9 mph 41 % 0 in
13:42 60.3 °F 35.8 °F 30.3 in East 17.7 mph 25.9 mph 40 % 0 in
13:47 60.8 °F 36.9 °F 30.3 in NE 15.9 mph 25.3 mph 41 % 0 in
13:52 60.8 °F 36.9 °F 30.3 in NE 19.7 mph 23.5 mph 41 % 0 in
13:54 60.8 °F 36.9 °F 30.3 in NE 19.9 mph 23.5 mph 41 % 0 in
13:58 60.8 °F 36.3 °F 30.3 in NE 19.7 mph 23.5 mph 40 % 0 in
14:03 60.8 °F 35.6 °F 30.3 in ENE 13.2 mph 21.5 mph 39 % 0 in
14:08 61 °F 35.8 °F 30.2 in NE 14.1 mph 24.4 mph 39 % 0 in
14:13 60.8 °F 35.6 °F 30.2 in NE 20.1 mph 24.4 mph 39 % 0 in
14:18 61.2 °F 36.7 °F 30.2 in NE 13.2 mph 23.5 mph 40 % 0 in
14:24 61.2 °F 36 °F 30.2 in NNE 17.4 mph 23 mph 39 % 0 in
14:29 61.2 °F 36.7 °F 30.2 in NE 12.3 mph 23.3 mph 40 % 0 in
14:34 61.2 °F 36 °F 30.2 in NE 12.8 mph 23.5 mph 39 % 0 in
14:39 61.5 °F 36.3 °F 30.2 in ENE 10.1 mph 23.5 mph 39 % 0 in
14:43 62.1 °F 36.7 °F 30.2 in ENE 13 mph 17.7 mph 39 % 0 in
14:48 61.5 °F 35.6 °F 30.2 in ENE 15.2 mph 23 mph 38 % 0 in
14:54 61.5 °F 36.3 °F 30.2 in NNE 16.1 mph 23 mph 39 % 0 in
14:59 61.5 °F 34.9 °F 30.2 in NE 25.5 mph 25.5 mph 37 % 0 in
15:04 61.5 °F 35.1 °F 30.2 in ENE 19.7 mph 25.5 mph 37 % 0 in
15:05 61.5 °F 35.1 °F 30.2 in NE 13.4 mph 25.5 mph 37 % 0 in
15:10 62.1 °F 35.4 °F 30.2 in ENE 11 mph 25.3 mph 37 % 0 in
15:15 61.9 °F 35.2 °F 30.2 in NE 19 mph 22.6 mph 37 % 0 in
15:20 62.2 °F 35.6 °F 30.2 in NE 13 mph 22.6 mph 37 % 0 in
15:25 62.1 °F 35.4 °F 30.2 in NE 12.5 mph 19.7 mph 37 % 0 in
15:30 61.9 °F 35.2 °F 30.2 in NE 13 mph 19.5 mph 37 % 0 in
15:35 61.5 °F 35.8 °F 30.2 in NNE 14.3 mph 22.4 mph 38 % 0 in
15:40 61.5 °F 35.1 °F 30.2 in NE 26.6 mph 26.6 mph 37 % 0 in
15:44 61.5 °F 35.8 °F 30.2 in ENE 17.7 mph 26.6 mph 38 % 0 in
15:49 61.5 °F 35.1 °F 30.2 in NE 16.1 mph 26.6 mph 37 % 0 in
15:59 61.3 °F 34.9 °F 30.2 in NE 20.6 mph 25.3 mph 37 % 0 in
16:04 61.2 °F 34.5 °F 30.2 in NE 22.4 mph 25.5 mph 37 % 0 in
16:09 61.3 °F 34.9 °F 30.2 in NE 13.6 mph 25.5 mph 37 % 0 in
16:14 61.3 °F 34.9 °F 30.2 in ENE 12.8 mph 24.2 mph 37 % 0 in
16:19 61.3 °F 34.9 °F 30.2 in ENE 12.5 mph 24.2 mph 37 % 0 in
16:24 61.2 °F 34 °F 30.2 in NE 20.4 mph 25.5 mph 36 % 0 in
16:29 61 °F 33.8 °F 30.2 in NNE 17.7 mph 25.9 mph 36 % 0 in
16:34 60.8 °F 33.6 °F 30.2 in ENE 17.2 mph 25.9 mph 36 % 0 in
16:39 60.6 °F 33.4 °F 30.2 in NE 12.5 mph 23.5 mph 36 % 0 in
16:44 60.4 °F 33.3 °F 30.2 in NE 15.4 mph 22.6 mph 36 % 0 in
16:49 60.4 °F 33.3 °F 30.2 in NE 13.2 mph 22.6 mph 36 % 0 in
16:54 60.3 °F 33.8 °F 30.2 in NE 17.2 mph 22.1 mph 37 % 0 in
16:59 60.1 °F 34.3 °F 30.2 in NNE 13 mph 19.2 mph 38 % 0 in
17:04 59.7 °F 34 °F 30.2 in NE 12.3 mph 22.8 mph 38 % 0 in
17:05 59.5 °F 34.5 °F 30.2 in NE 12.8 mph 22.8 mph 39 % 0 in
17:10 59.4 °F 34.3 °F 30.2 in NE 12.3 mph 22.8 mph 39 % 0 in
17:15 59.4 °F 33.6 °F 30.2 in ENE 12.5 mph 19.5 mph 38 % 0 in
17:20 59.5 °F 34 °F 30.2 in NE 15.4 mph 19.7 mph 38 % 0 in
17:25 59.5 °F 34 °F 30.2 in NE 12.5 mph 22.8 mph 38 % 0 in
17:30 59.5 °F 34 °F 30.2 in ENE 9.4 mph 22.8 mph 38 % 0 in
17:35 59.4 °F 33.6 °F 30.2 in NE 13.2 mph 15.7 mph 38 % 0 in
17:40 58.8 °F 32.5 °F 30.2 in NE 10.5 mph 17.4 mph 37 % 0 in
17:45 58.6 °F 32.4 °F 30.2 in ENE 15.4 mph 17.4 mph 37 % 0 in
17:50 58.5 °F 32.4 °F 30.2 in ENE 11 mph 18.1 mph 37 % 0 in
17:55 58.5 °F 32.9 °F 30.2 in NE 9.8 mph 18.1 mph 38 % 0 in
18:00 58.3 °F 32.7 °F 30.2 in ENE 10.1 mph 17.4 mph 38 % 0 in
18:05 58.1 °F 32.5 °F 30.2 in NE 10.5 mph 17.4 mph 38 % 0 in
18:10 57.7 °F 32.4 °F 30.2 in ENE 12.8 mph 14.8 mph 38 % 0 in
18:15 57.6 °F 32.7 °F 30.2 in NNE 8.5 mph 14.8 mph 39 % 0 in
18:20 57.4 °F 32.5 °F 30.2 in NE 8.5 mph 13.2 mph 39 % 0 in
18:25 57.4 °F 32.5 °F 30.2 in NNE 8.5 mph 13.9 mph 39 % 0 in
18:30 56.8 °F 32.7 °F 30.2 in ENE 9.2 mph 13.9 mph 40 % 0 in
18:35 56.5 °F 32.5 °F 30.2 in ENE 7.4 mph 13.4 mph 40 % 0 in
18:40 56.3 °F 32.4 °F 30.2 in ENE 9.8 mph 13 mph 40 % 0 in
18:45 56.1 °F 32.2 °F 30.2 in NE 8.5 mph 13 mph 40 % 0 in
18:50 55.8 °F 31.8 °F 30.2 in NE 7.8 mph 13 mph 40 % 0 in
18:55 55.8 °F 32.4 °F 30.2 in NE 8.5 mph 12.8 mph 41 % 0 in
19:00 55.6 °F 32.2 °F 30.2 in NE 8.1 mph 12.8 mph 41 % 0 in
19:05 55 °F 31.8 °F 30.2 in NE 12.8 mph 12.8 mph 41 % 0 in
19:10 54.9 °F 31.6 °F 30.2 in ENE 13 mph 13 mph 41 % 0 in
19:15 54.9 °F 31.6 °F 30.2 in NE 10.7 mph 14.1 mph 41 % 0 in
19:20 54.7 °F 31.8 °F 30.2 in ENE 10.7 mph 14.5 mph 42 % 0 in
19:25 54.3 °F 31.8 °F 30.2 in NE 8.5 mph 14.5 mph 42 % 0 in
19:30 54 °F 31.5 °F 30.2 in NE 7.8 mph 12.3 mph 42 % 0 in
19:35 54 °F 31.8 °F 30.2 in NE 10.7 mph 11.4 mph 43 % 0 in
19:40 53.8 °F 31.6 °F 30.2 in NE 8.7 mph 13 mph 43 % 0 in
19:45 53.4 °F 31.6 °F 30.2 in NE 10.3 mph 14.1 mph 43 % 0 in
19:55 53.2 °F 31.5 °F 30.2 in NE 10.7 mph 13.9 mph 43 % 0 in
20:06 53.1 °F 31.1 °F 30.2 in ENE 13 mph 13.9 mph 43 % 0 in
20:11 53.1 °F 30.6 °F 30.2 in NE 11 mph 13.9 mph 42 % 0 in
20:16 52.9 °F 30.4 °F 30.2 in NE 10.5 mph 13.4 mph 42 % 0 in
20:21 52.5 °F 30.2 °F 30.2 in NE 10.7 mph 14.5 mph 42 % 0 in
20:26 52.5 °F 30.2 °F 30.2 in NE 10.3 mph 14.5 mph 42 % 0 in
20:31 52.3 °F 29.8 °F 30.2 in NE 10.1 mph 12.5 mph 42 % 0 in
20:36 52.2 °F 29.7 °F 30.2 in NE 8.9 mph 13.4 mph 42 % 0 in
20:41 52 °F 29.5 °F 30.2 in NE 9.8 mph 13.4 mph 42 % 0 in
20:46 51.8 °F 29.5 °F 30.2 in NE 7.8 mph 12.8 mph 42 % 0 in
20:51 51.6 °F 29.1 °F 30.2 in NE 10.7 mph 11 mph 42 % 0 in
20:56 51.4 °F 29.1 °F 30.2 in NE 10.3 mph 11 mph 42 % 0 in
21:01 51.4 °F 29.1 °F 30.2 in NE 7.6 mph 12.5 mph 42 % 0 in
21:06 51.3 °F 28.9 °F 30.2 in NE 7.8 mph 12.5 mph 42 % 0 in
21:11 50.9 °F 28.6 °F 30.2 in NE 7.8 mph 10.7 mph 42 % 0 in
21:16 51.1 °F 28.8 °F 30.2 in NE 8.7 mph 12.1 mph 42 % 0 in
21:21 50.9 °F 28.6 °F 30.2 in NE 9.2 mph 12.1 mph 42 % 0 in
21:26 50.5 °F 28.2 °F 30.2 in NE 7.4 mph 10.7 mph 42 % 0 in
21:31 50.7 °F 28.4 °F 30.2 in NE 8.5 mph 13.2 mph 42 % 0 in
21:36 50.5 °F 28.2 °F 30.2 in NE 6.5 mph 13.2 mph 42 % 0 in
21:41 50.4 °F 28 °F 30.2 in ENE 8.7 mph 13.2 mph 42 % 0 in
21:46 50.2 °F 27.9 °F 30.2 in NE 10.1 mph 12.1 mph 42 % 0 in
21:56 50 °F 28.4 °F 30.2 in ENE 10.3 mph 12.8 mph 43 % 0 in
22:01 49.6 °F 28 °F 30.2 in NE 9.2 mph 12.8 mph 43 % 0 in
22:06 49.5 °F 28.4 °F 30.2 in NE 7.4 mph 12.8 mph 44 % 0 in
22:11 48.9 °F 28 °F 30.2 in NE 9.4 mph 12.1 mph 44 % 0 in
22:16 48.9 °F 28.6 °F 30.2 in NE 11 mph 12.8 mph 45 % 0 in
22:21 48.9 °F 28.6 °F 30.2 in NE 10.1 mph 13.2 mph 45 % 0 in
22:26 48.7 °F 28.9 °F 30.2 in NE 14.5 mph 14.5 mph 46 % 0 in
22:31 48.7 °F 28.9 °F 30.2 in NE 12.5 mph 16.1 mph 46 % 0 in
22:36 48.9 °F 29.7 °F 30.2 in North 10.1 mph 16.1 mph 47 % 0 in
22:41 48.6 °F 29.1 °F 30.2 in NE 10.7 mph 15.4 mph 47 % 0 in
22:46 48.6 °F 29.1 °F 30.2 in ENE 10.7 mph 12.5 mph 47 % 0 in
22:51 48.6 °F 29.1 °F 30.2 in NNE 12.1 mph 16.1 mph 47 % 0 in
22:56 48.6 °F 29.1 °F 30.2 in NE 13 mph 16.1 mph 47 % 0 in
23:01 48.6 °F 29.1 °F 30.2 in NE 13 mph 14.5 mph 47 % 0 in
23:06 48.4 °F 29.7 °F 30.2 in NE 11.4 mph 14.5 mph 48 % 0 in
23:11 48.2 °F 29.5 °F 30.2 in NE 12.5 mph 14.1 mph 48 % 0 in
23:16 48 °F 29.3 °F 30.2 in NNE 15.2 mph 15.2 mph 48 % 0 in
23:21 47.8 °F 29.1 °F 30.2 in NNE 11 mph 15.2 mph 48 % 0 in
23:26 47.7 °F 29.5 °F 30.2 in NE 10.7 mph 14.5 mph 49 % 0 in
23:31 47.7 °F 29.5 °F 30.2 in NE 9.4 mph 13.6 mph 49 % 0 in
23:37 47.5 °F 29.3 °F 30.2 in NE 7.8 mph 13.6 mph 49 % 0 in
23:42 47.3 °F 29.7 °F 30.2 in NE 8.7 mph 12.8 mph 50 % 0 in
23:47 47.3 °F 29.7 °F 30.2 in NE 9.4 mph 12.8 mph 50 % 0 in
23:52 47.3 °F 30 °F 30.2 in ENE 7.6 mph 12.8 mph 51 % 0 in
23:57 46.9 °F 29.8 °F 30.2 in NE 7.8 mph 10.3 mph 51 % 0 in
Le Gheer Warneton
Courtoisie de Weather Underground - 2.25 mb

Mise a jour : 18/12/2017 21:24:12
Généré par Cumulus 1.9.4 (1099)